createdAt,value
2019-05-29T00:00:27.091Z,50.46
2019-05-29T00:05:29.561Z,50.58
2019-05-29T00:10:32.141Z,50.35
2019-05-29T00:15:35.009Z,50.45
2019-05-29T00:20:37.200Z,50.34
2019-05-29T00:25:40.000Z,50.62
2019-05-29T00:30:42.273Z,50.74
2019-05-29T00:35:45.468Z,50.51
2019-05-29T00:40:48.459Z,50.57
2019-05-29T00:45:51.021Z,50.50
2019-05-29T00:50:53.866Z,50.40
2019-05-29T00:55:56.893Z,50.48
2019-05-29T01:00:59.531Z,50.37
2019-05-29T01:06:02.680Z,50.30
2019-05-29T01:11:05.120Z,50.36
2019-05-29T01:16:07.407Z,50.38
2019-05-29T01:21:09.562Z,50.66
2019-05-29T01:26:12.460Z,50.56
2019-05-29T01:31:15.673Z,50.86
2019-05-29T01:36:18.051Z,51.24
2019-05-29T01:41:21.458Z,51.48
2019-05-29T01:46:24.549Z,52.02
2019-05-29T01:51:28.057Z,52.47
2019-05-29T01:56:30.537Z,52.85
2019-05-29T02:01:33.569Z,53.13
2019-05-29T02:06:35.752Z,53.58
2019-05-29T02:11:38.867Z,53.79
2019-05-29T02:16:41.219Z,53.97
2019-05-29T02:21:43.901Z,54.02
2019-05-29T02:26:46.421Z,54.06
2019-05-29T02:31:48.612Z,54.32
2019-05-29T02:36:51.152Z,54.26
2019-05-29T02:41:53.925Z,54.21
2019-05-29T02:46:56.420Z,54.53
2019-05-29T02:51:59.120Z,54.53
2019-05-29T02:57:01.388Z,54.55
2019-05-29T03:02:03.574Z,54.85
2019-05-29T03:07:05.953Z,55.21
2019-05-29T03:12:08.119Z,55.27
2019-05-29T03:17:10.244Z,55.18
2019-05-29T03:22:12.395Z,55.38
2019-05-29T03:27:15.528Z,55.41
2019-05-29T03:32:19.011Z,55.67
2019-05-29T03:37:21.538Z,55.88
2019-05-29T03:42:24.055Z,56.36
2019-05-29T03:47:26.899Z,56.81
2019-05-29T03:52:30.410Z,56.94
2019-05-29T03:57:33.845Z,56.87
2019-05-29T04:02:38.210Z,56.55
2019-05-29T04:07:41.371Z,57.16
2019-05-29T04:12:44.595Z,57.01
2019-05-29T04:17:47.627Z,57.21
2019-05-29T04:22:54.788Z,57.33
2019-05-29T04:28:00.516Z,57.37
2019-05-29T04:33:03.058Z,57.32
2019-05-29T04:38:05.490Z,57.36
2019-05-29T04:43:07.764Z,57.58
2019-05-29T04:48:10.558Z,57.58
2019-05-29T04:53:13.240Z,57.22
2019-05-29T04:58:16.222Z,57.26
2019-05-29T05:03:19.067Z,57.31
2019-05-29T05:08:21.646Z,57.06
2019-05-29T05:13:24.438Z,57.23
2019-05-29T05:18:26.702Z,57.23
2019-05-29T05:23:30.182Z,56.77
2019-05-29T05:28:32.485Z,56.53
2019-05-29T05:33:34.936Z,56.06
2019-05-29T05:38:38.784Z,55.75
2019-05-29T05:43:41.614Z,55.59
2019-05-29T05:48:43.926Z,55.34
2019-05-29T05:53:46.402Z,54.42
2019-05-29T05:58:49.535Z,53.24
2019-05-29T06:03:51.772Z,52.59
2019-05-29T06:08:54.878Z,51.91
2019-05-29T06:13:57.204Z,51.44
2019-05-29T06:19:00.692Z,50.87
2019-05-29T06:24:03.406Z,50.63
2019-05-29T06:29:06.524Z,50.61
2019-05-29T06:34:09.644Z,50.26
2019-05-29T06:39:12.646Z,49.70
2019-05-29T06:44:15.085Z,49.82
2019-05-29T06:49:17.328Z,49.11
2019-05-29T06:54:19.743Z,48.59
2019-05-29T06:59:22.237Z,47.68
2019-05-29T07:04:25.215Z,47.41
2019-05-29T07:09:28.032Z,46.61
2019-05-29T07:14:30.543Z,46.07
2019-05-29T07:19:47.513Z,46.07
2019-05-29T07:24:37.091Z,44.23
2019-05-29T07:29:41.034Z,43.97
2019-05-29T07:34:59.505Z,0.00
2019-05-29T07:39:48.073Z,39.61
2019-05-29T07:44:51.996Z,39.61
2019-05-29T07:49:55.118Z,32.65
2019-05-29T07:54:57.537Z,33.59
2019-05-29T07:59:59.992Z,30.92
2019-05-29T08:05:02.999Z,27.83
2019-05-29T08:10:06.738Z,26.81
2019-05-29T08:15:10.542Z,28.81
2019-05-29T08:20:13.519Z,27.93
2019-05-29T08:25:16.660Z,29.57
2019-05-29T08:30:20.437Z,31.45
2019-05-29T08:35:23.576Z,30.54
2019-05-29T08:40:26.274Z,31.27
2019-05-29T08:45:29.250Z,30.04
2019-05-29T08:50:31.487Z,30.21
2019-05-29T08:55:33.687Z,31.16
2019-05-29T09:00:36.723Z,31.57
2019-05-29T09:05:39.732Z,31.21
2019-05-29T09:10:43.143Z,31.85
2019-05-29T09:15:45.673Z,29.56
2019-05-29T09:21:02.534Z,29.02
2019-05-29T09:25:53.024Z,29.97
2019-05-29T09:30:55.195Z,28.48
2019-05-29T09:35:57.712Z,27.43
2019-05-29T09:40:59.870Z,26.81
2019-05-29T09:46:02.391Z,27.97
2019-05-29T09:51:20.593Z,28.63
2019-05-29T09:56:10.752Z,27.01
2019-05-29T10:01:22.691Z,25.65
2019-05-29T10:06:17.228Z,26.14
2019-05-29T10:11:20.021Z,27.37
2019-05-29T10:16:22.629Z,27.02
2019-05-29T10:21:39.464Z,27.42
2019-05-29T10:26:29.436Z,27.24
2019-05-29T10:31:31.599Z,24.55
2019-05-29T10:36:33.896Z,24.00
2019-05-29T10:41:36.064Z,24.13
2019-05-29T10:46:38.392Z,25.67
2019-05-29T10:52:00.263Z,24.98
2019-05-29T10:56:48.877Z,23.66
2019-05-29T11:01:51.929Z,23.75
2019-05-29T11:06:56.741Z,23.81
2019-05-29T11:11:59.644Z,24.30
2019-05-29T11:17:01.786Z,23.52
2019-05-29T11:22:22.889Z,23.01
2019-05-29T11:27:08.713Z,23.41
2019-05-29T11:32:11.140Z,23.72
2019-05-29T11:37:14.396Z,22.21
2019-05-29T11:42:26.930Z,21.96
2019-05-29T11:47:21.000Z,21.94
2019-05-29T11:52:25.027Z,22.10
2019-05-29T11:57:28.876Z,22.30
2019-05-29T12:02:31.238Z,22.82
2019-05-29T12:07:33.773Z,22.83
2019-05-29T12:12:36.379Z,21.92
2019-05-29T12:17:39.867Z,21.98
2019-05-29T12:23:07.212Z,21.84
2019-05-29T12:27:50.219Z,22.29
2019-05-29T12:32:52.800Z,22.90
2019-05-29T12:37:55.497Z,22.85
2019-05-29T12:43:00.176Z,22.57
2019-05-29T12:48:10.384Z,22.38
2019-05-29T12:53:08.420Z,22.63
2019-05-29T12:58:10.684Z,23.35
2019-05-29T13:03:12.950Z,23.03
2019-05-29T13:08:15.400Z,22.81
2019-05-29T13:13:17.869Z,23.06
2019-05-29T13:18:20.697Z,23.12
2019-05-29T13:23:23.135Z,22.86
2019-05-29T13:28:25.307Z,23.01
2019-05-29T13:33:28.034Z,23.69
2019-05-29T13:38:30.959Z,23.91
2019-05-29T13:43:33.134Z,23.18
2019-05-29T13:48:35.351Z,22.72
2019-05-29T13:53:37.500Z,23.18
2019-05-29T13:58:40.302Z,23.20
2019-05-29T14:03:42.451Z,23.42
2019-05-29T14:08:44.647Z,23.02
2019-05-29T14:13:47.206Z,23.02
2019-05-29T14:18:49.514Z,23.64
2019-05-29T14:23:51.852Z,23.80
2019-05-29T14:28:54.747Z,23.64
2019-05-29T14:33:57.232Z,23.51
2019-05-29T14:38:59.719Z,23.43
2019-05-29T14:44:01.962Z,23.36
2019-05-29T14:49:04.396Z,23.18
2019-05-29T14:54:07.008Z,23.04
2019-05-29T14:59:11.136Z,22.14
2019-05-29T15:04:14.662Z,22.37
2019-05-29T15:09:17.451Z,22.41
2019-05-29T15:14:20.237Z,22.41
2019-05-29T15:19:22.414Z,22.41
2019-05-29T15:24:24.600Z,22.59
2019-05-29T15:29:27.099Z,22.15
2019-05-29T15:34:30.199Z,22.44
2019-05-29T15:39:33.755Z,21.78
2019-05-29T15:44:36.235Z,23.17
2019-05-29T15:49:38.387Z,23.46
2019-05-29T15:54:40.901Z,23.62
2019-05-29T15:59:43.063Z,23.59
2019-05-29T16:04:45.679Z,23.26
2019-05-29T16:09:48.254Z,23.17
2019-05-29T16:14:51.674Z,23.78
2019-05-29T16:19:54.784Z,24.17
2019-05-29T16:24:57.064Z,24.18
2019-05-29T16:29:59.587Z,23.96
2019-05-29T16:35:02.153Z,24.10
2019-05-29T16:40:06.356Z,24.37
2019-05-29T16:45:12.083Z,24.02
2019-05-29T16:50:17.263Z,23.63
2019-05-29T16:55:20.947Z,24.24
2019-05-29T17:00:23.983Z,24.77
2019-05-29T17:05:26.424Z,24.71
2019-05-29T17:10:36.386Z,24.72
2019-05-29T17:15:38.660Z,24.73
2019-05-29T17:20:43.418Z,25.19
2019-05-29T17:25:45.575Z,25.03
2019-05-29T17:30:49.487Z,25.02
2019-05-29T17:35:51.777Z,25.13
2019-05-29T17:40:53.994Z,25.50
2019-05-29T17:45:56.996Z,25.90
2019-05-29T17:50:59.550Z,25.94
2019-05-29T17:56:02.737Z,25.92
2019-05-29T18:01:05.296Z,26.36
2019-05-29T18:06:07.482Z,26.50
2019-05-29T18:11:09.789Z,26.73
2019-05-29T18:16:12.078Z,27.06
2019-05-29T18:21:14.296Z,27.21
2019-05-29T18:26:17.858Z,27.29
2019-05-29T18:31:20.394Z,27.75
2019-05-29T18:36:23.156Z,27.62
2019-05-29T18:41:26.388Z,27.76
2019-05-29T18:46:29.220Z,27.97
2019-05-29T18:51:31.428Z,28.26
2019-05-29T18:56:33.835Z,28.33
2019-05-29T19:01:36.907Z,28.59
2019-05-29T19:06:39.795Z,28.87
2019-05-29T19:11:42.276Z,29.33
2019-05-29T19:16:45.449Z,29.68
2019-05-29T19:21:48.095Z,29.84
2019-05-29T19:26:50.728Z,30.20
2019-05-29T19:31:52.844Z,30.41
2019-05-29T19:36:55.573Z,30.75
2019-05-29T19:41:58.105Z,31.18
2019-05-29T19:47:00.327Z,31.73
2019-05-29T19:52:02.687Z,32.12
2019-05-29T19:57:05.098Z,32.50
2019-05-29T20:02:07.417Z,32.91
2019-05-29T20:07:09.557Z,33.29
2019-05-29T20:12:12.548Z,33.78
2019-05-29T20:17:14.999Z,34.02
2019-05-29T20:22:17.176Z,34.20
2019-05-29T20:27:19.310Z,34.21
2019-05-29T20:32:21.489Z,34.20
2019-05-29T20:37:23.628Z,34.05
2019-05-29T20:42:26.774Z,34.52
2019-05-29T20:47:29.678Z,34.82
2019-05-29T20:52:33.099Z,35.52
2019-05-29T20:57:38.027Z,36.13
2019-05-29T21:02:40.510Z,36.45
2019-05-29T21:07:43.373Z,37.01
2019-05-29T21:12:47.571Z,37.54
2019-05-29T21:17:50.903Z,38.05
2019-05-29T21:22:53.690Z,38.34
2019-05-29T21:27:56.040Z,38.60
2019-05-29T21:32:58.748Z,38.89
2019-05-29T21:38:01.508Z,38.94
2019-05-29T21:43:03.894Z,39.37
2019-05-29T21:48:07.180Z,39.69
2019-05-29T21:53:09.944Z,40.06
2019-05-29T21:58:12.343Z,40.35
2019-05-29T22:03:14.838Z,40.62
2019-05-29T22:08:17.325Z,40.99
2019-05-29T22:13:19.477Z,41.21
2019-05-29T22:18:21.719Z,41.39
2019-05-29T22:23:24.206Z,41.75
2019-05-29T22:28:26.340Z,42.16
2019-05-29T22:33:29.623Z,42.54
2019-05-29T22:38:32.172Z,42.65
2019-05-29T22:43:35.240Z,42.85
2019-05-29T22:48:37.466Z,43.27
2019-05-29T22:53:40.279Z,43.75
2019-05-29T22:58:42.859Z,43.81
2019-05-29T23:03:45.350Z,43.95
2019-05-29T23:08:47.855Z,44.23
2019-05-29T23:13:52.158Z,44.53
2019-05-29T23:18:56.443Z,44.74
2019-05-29T23:23:59.593Z,45.15
2019-05-29T23:29:03.797Z,45.41
2019-05-29T23:34:06.454Z,45.65
2019-05-29T23:39:08.596Z,45.80
2019-05-29T23:44:10.770Z,45.90
2019-05-29T23:49:13.219Z,46.19
2019-05-29T23:54:16.121Z,46.48
2019-05-29T23:59:18.328Z,46.65
